Time;durP1;ratioP1;P1;durP2;ratioP2;P2;SDS_P1;SDS_P2;PMS_P1;PMS_P2;Temp;Humidity;BMP_temperature;BMP_pressure;BME280_temperature;BME280_humidity;BME280_pressure;Samples;Min_cycle;Max_cycle;Signal;HPM_P1;HPM_P2
2022/07/27 00:00:03;;;;;;;19.50;18.50;;;;;;;;;;5034692;28;20578;-84
2022/07/27 00:02:30;;;;;;;19.90;18.73;;;;;;;;;;5034196;28;20450;-85
2022/07/27 00:04:57;;;;;;;19.43;18.23;;;;;;;;;;5034706;28;20928;-85
2022/07/27 00:07:25;;;;;;;19.27;18.07;;;;;;;;;;5033970;28;20439;-85
2022/07/27 00:09:53;;;;;;;19.60;18.60;;;;;;;;;;5034486;28;20474;-85
2022/07/27 00:12:20;;;;;;;19.90;18.47;;;;;;;;;;5034283;28;20426;-85
2022/07/27 00:14:49;;;;;;;20.40;19.00;;;;;;;;;;5033692;28;20473;-85
2022/07/27 00:17:21;;;;;;;19.77;18.57;;;;;;;;;;5034814;28;20851;-85
2022/07/27 00:19:49;;;;;;;20.03;18.93;;;;;;;;;;5033993;28;20490;-85
2022/07/27 00:22:17;;;;;;;19.77;18.60;;;;;;;;;;5034511;28;20750;-86
2022/07/27 00:24:44;;;;;;;18.77;17.87;;;;;;;;;;5033956;28;20478;-85
2022/07/27 00:27:11;;;;;;;19.27;18.17;;;;;;;;;;5032971;28;20785;-85
2022/07/27 00:29:39;;;;;;;19.50;18.60;;;;;;;;;;5034539;28;20433;-85
2022/07/27 00:32:08;;;;;;;19.50;18.23;;;;;;;;;;5034263;28;20438;-85
2022/07/27 00:34:36;;;;;;;18.80;17.70;;;;;;;;;;5034689;28;20440;-85
2022/07/27 00:37:03;;;;;;;18.70;17.77;;;;;;;;;;5034250;28;20415;-85
2022/07/27 00:39:31;;;;;;;19.33;18.23;;;;;;;;;;5034383;28;20438;-85
2022/07/27 00:41:58;;;;;;;20.23;18.60;;;;;;;;;;5034125;28;20424;-85
2022/07/27 00:44:26;;;;;;;19.40;18.40;;;;;;;;;;5033847;28;20775;-85
2022/07/27 00:46:54;;;;;;;19.07;18.03;;;;;;;;;;5033208;28;20449;-85
2022/07/27 00:49:23;;;;;;;19.27;18.27;;;;;;;;;;5033706;28;20768;-85
2022/07/27 00:51:51;;;;;;;18.90;17.93;;;;;;;;;;5034661;28;20506;-86
2022/07/27 00:54:18;;;;;;;19.00;17.93;;;;;;;;;;5034061;28;20438;-85
2022/07/27 00:56:46;;;;;;;18.77;17.57;;;;;;;;;;5034313;28;20452;-85
2022/07/27 00:59:14;;;;;;;19.73;18.30;;;;;;;;;;5034529;28;20414;-85
2022/07/27 01:01:42;;;;;;;18.63;17.63;;;;;;;;;;5032457;28;20428;-85
2022/07/27 01:04:09;;;;;;;18.70;17.80;;;;;;;;;;5033697;28;20468;-85
2022/07/27 01:06:38;;;;;;;18.73;17.73;;;;;;;;;;5033881;28;20418;-85
2022/07/27 01:11:53;;;;;;;18.60;17.70;;;;;;;;;;5033650;28;20512;-85
2022/07/27 01:14:20;;;;;;;17.90;17.10;;;;;;;;;;5034091;28;20431;-84
2022/07/27 01:16:48;;;;;;;19.03;17.97;;;;;;;;;;5033782;28;20431;-85
2022/07/27 01:19:15;;;;;;;19.80;18.50;;;;;;;;;;5034252;28;20412;-85
2022/07/27 01:21:44;;;;;;;18.43;17.53;;;;;;;;;;5038287;28;20436;-85
2022/07/27 01:24:12;;;;;;;18.60;17.53;;;;;;;;;;5037782;28;20439;-86
2022/07/27 01:26:39;;;;;;;19.53;17.70;;;;;;;;;;5036935;28;20499;-85
2022/07/27 01:29:07;;;;;;;18.20;17.30;;;;;;;;;;5037694;28;20416;-85
2022/07/27 01:31:34;;;;;;;19.00;17.80;;;;;;;;;;5037826;28;20926;-85
2022/07/27 01:34:01;;;;;;;18.87;17.87;;;;;;;;;;5036900;28;20496;-84
2022/07/27 01:36:29;;;;;;;18.73;17.73;;;;;;;;;;5036904;28;20802;-85
2022/07/27 01:38:57;;;;;;;19.00;18.00;;;;;;;;;;5037044;28;20820;-85
2022/07/27 01:41:25;;;;;;;19.10;17.90;;;;;;;;;;5037626;28;20868;-85
2022/07/27 01:43:52;;;;;;;19.00;17.67;;;;;;;;;;5037260;28;20445;-85
2022/07/27 01:46:20;;;;;;;18.60;17.50;;;;;;;;;;5036376;28;20496;-85
2022/07/27 01:48:49;;;;;;;19.13;17.53;;;;;;;;;;5038092;28;20437;-85
2022/07/27 01:51:16;;;;;;;18.53;17.53;;;;;;;;;;5036144;28;20428;-85
2022/07/27 01:53:44;;;;;;;18.77;17.77;;;;;;;;;;5037430;28;20416;-85
2022/07/27 01:56:13;;;;;;;19.63;18.30;;;;;;;;;;5036129;28;20460;-84
2022/07/27 01:58:40;;;;;;;18.87;17.77;;;;;;;;;;5036668;28;20805;-85
2022/07/27 02:01:08;;;;;;;18.93;18.03;;;;;;;;;;5036326;28;20409;-85
2022/07/27 02:03:36;;;;;;;19.67;18.23;;;;;;;;;;5036854;28;20432;-85
2022/07/27 02:06:04;;;;;;;19.70;18.63;;;;;;;;;;5037164;28;20488;-84
2022/07/27 02:08:31;;;;;;;20.40;19.00;;;;;;;;;;5036961;28;20419;-85
2022/07/27 02:13:46;;;;;;;18.30;17.30;;;;;;;;;;5036909;28;20457;-85
2022/07/27 02:16:13;;;;;;;18.97;17.90;;;;;;;;;;5034902;28;20471;-85
2022/07/27 02:18:41;;;;;;;19.10;18.03;;;;;;;;;;5035354;28;20445;-85
2022/07/27 02:21:09;;;;;;;19.10;18.00;;;;;;;;;;5036049;28;20489;-85
2022/07/27 02:23:37;;;;;;;18.50;17.60;;;;;;;;;;5036517;28;20477;-84
2022/07/27 02:26:05;;;;;;;18.87;17.77;;;;;;;;;;5036116;28;20470;-85
2022/07/27 02:28:32;;;;;;;18.73;17.60;;;;;;;;;;5036294;28;20434;-85
2022/07/27 02:31:01;;;;;;;20.00;18.63;;;;;;;;;;5036420;28;20452;-84
2022/07/27 02:33:28;;;;;;;18.63;17.63;;;;;;;;;;5036145;28;20423;-83
2022/07/27 02:35:56;;;;;;;18.53;17.53;;;;;;;;;;5036066;28;20427;-85
2022/07/27 02:38:24;;;;;;;18.53;17.53;;;;;;;;;;5036253;28;20420;-84
2022/07/27 02:40:52;;;;;;;18.73;17.57;;;;;;;;;;5036237;28;20422;-85
2022/07/27 02:43:19;;;;;;;18.67;17.67;;;;;;;;;;5035674;28;20444;-84
2022/07/27 02:45:47;;;;;;;18.77;17.37;;;;;;;;;;5035978;28;20467;-84
2022/07/27 02:48:16;;;;;;;18.27;17.17;;;;;;;;;;5035669;28;20906;-85
2022/07/27 02:50:43;;;;;;;18.07;16.97;;;;;;;;;;5035534;28;21293;-85
2022/07/27 02:53:10;;;;;;;18.30;17.20;;;;;;;;;;5035498;28;20441;-85
2022/07/27 02:55:37;;;;;;;19.63;18.30;;;;;;;;;;5035683;28;20419;-85
2022/07/27 02:58:05;;;;;;;18.37;17.37;;;;;;;;;;5035515;28;20463;-85
2022/07/27 03:00:32;;;;;;;18.00;17.10;;;;;;;;;;5035775;28;20495;-85
2022/07/27 03:03:00;;;;;;;18.10;17.20;;;;;;;;;;5034243;28;20845;-85
2022/07/27 03:05:29;;;;;;;19.20;17.80;;;;;;;;;;5035920;28;20466;-85
2022/07/27 03:07:57;;;;;;;17.97;17.07;;;;;;;;;;5035785;28;20511;-85
2022/07/27 03:10:24;;;;;;;18.40;17.33;;;;;;;;;;5035299;28;20448;-85
2022/07/27 03:12:51;;;;;;;18.67;17.77;;;;;;;;;;5035138;28;20443;-84
2022/07/27 03:15:19;;;;;;;18.27;17.20;;;;;;;;;;5035346;28;20455;-85
2022/07/27 03:17:46;;;;;;;18.70;17.67;;;;;;;;;;5035270;28;20448;-85
2022/07/27 03:20:14;;;;;;;18.90;17.90;;;;;;;;;;5034212;28;20882;-84
2022/07/27 03:22:43;;;;;;;18.93;17.80;;;;;;;;;;5035234;28;20430;-85
2022/07/27 03:25:11;;;;;;;18.80;17.80;;;;;;;;;;5034477;28;20445;-84
2022/07/27 03:27:38;;;;;;;19.23;18.00;;;;;;;;;;5034967;28;20438;-85
2022/07/27 03:30:06;;;;;;;19.03;17.93;;;;;;;;;;5035080;28;20486;-85
2022/07/27 03:32:33;;;;;;;18.20;17.30;;;;;;;;;;5034948;28;20438;-85
2022/07/27 03:35:01;;;;;;;18.63;17.67;;;;;;;;;;5034683;28;20451;-85
2022/07/27 03:37:28;;;;;;;18.60;17.53;;;;;;;;;;5034383;28;20412;-85
2022/07/27 03:39:57;;;;;;;19.07;17.77;;;;;;;;;;5034770;28;20440;-85
2022/07/27 03:42:24;;;;;;;18.07;17.17;;;;;;;;;;5034378;28;20919;-85
2022/07/27 03:44:52;;;;;;;18.47;17.37;;;;;;;;;;5035167;28;20422;-85
2022/07/27 03:47:20;;;;;;;18.20;17.30;;;;;;;;;;5034034;28;20495;-84
2022/07/27 03:49:47;;;;;;;18.73;17.73;;;;;;;;;;5033577;28;20458;-85
2022/07/27 03:52:15;;;;;;;19.17;18.10;;;;;;;;;;5034639;28;20411;-85
2022/07/27 03:54:42;;;;;;;19.10;17.77;;;;;;;;;;5034715;28;20488;-85
2022/07/27 03:57:11;;;;;;;18.80;17.80;;;;;;;;;;5035035;28;20439;-84
2022/07/27 03:59:38;;;;;;;19.00;17.90;;;;;;;;;;5034263;28;20408;-83
2022/07/27 04:02:05;;;;;;;18.77;17.57;;;;;;;;;;5033877;28;20411;-83
2022/07/27 04:04:33;;;;;;;19.83;18.73;;;;;;;;;;5033467;28;20413;-82
2022/07/27 04:07:00;;;;;;;19.80;18.60;;;;;;;;;;5033773;28;20465;-84
2022/07/27 04:09:28;;;;;;;19.20;18.10;;;;;;;;;;5034623;28;20441;-84
2022/07/27 04:11:55;;;;;;;19.13;17.87;;;;;;;;;;5034371;28;20456;-83
2022/07/27 04:14:24;;;;;;;19.47;18.30;;;;;;;;;;5033224;28;20528;-82
2022/07/27 04:16:51;;;;;;;18.53;17.60;;;;;;;;;;5033342;28;20509;-82
2022/07/27 04:19:19;;;;;;;18.97;17.87;;;;;;;;;;5033114;28;20507;-82
2022/07/27 04:21:46;;;;;;;19.70;18.50;;;;;;;;;;5033197;28;20446;-82
2022/07/27 04:24:13;;;;;;;19.13;17.90;;;;;;;;;;5033127;28;20767;-83
2022/07/27 04:26:40;;;;;;;19.00;18.00;;;;;;;;;;5032943;28;20503;-82
2022/07/27 04:29:08;;;;;;;18.60;17.70;;;;;;;;;;5033178;28;20459;-83
2022/07/27 04:31:37;;;;;;;22.27;20.10;;;;;;;;;;5033355;28;20807;-82
2022/07/27 04:34:04;;;;;;;19.33;17.97;;;;;;;;;;5033400;28;20419;-82
2022/07/27 04:36:31;;;;;;;19.00;18.00;;;;;;;;;;5033390;28;20490;-82
2022/07/27 04:38:59;;;;;;;18.93;17.83;;;;;;;;;;5033426;28;20440;-83
2022/07/27 04:41:26;;;;;;;19.73;18.43;;;;;;;;;;5032758;28;20763;-83
2022/07/27 04:43:54;;;;;;;18.97;17.67;;;;;;;;;;5031677;28;20450;-83
2022/07/27 04:46:21;;;;;;;19.17;18.07;;;;;;;;;;5032967;28;20454;-83
2022/07/27 04:48:50;;;;;;;19.63;18.27;;;;;;;;;;5033123;28;20436;-83
2022/07/27 04:51:18;;;;;;;18.70;17.80;;;;;;;;;;5032958;28;20416;-82
2022/07/27 04:53:46;;;;;;;20.37;19.17;;;;;;;;;;5035026;28;20410;-82
2022/07/27 04:56:13;;;;;;;21.50;19.90;;;;;;;;;;5036709;28;20523;-83
2022/07/27 04:58:41;;;;;;;21.30;19.63;;;;;;;;;;5036740;28;20448;-83
2022/07/27 05:01:08;;;;;;;19.60;18.60;;;;;;;;;;5037093;28;20469;-83
2022/07/27 05:03:36;;;;;;;19.87;18.77;;;;;;;;;;5037114;28;20409;-82
2022/07/27 05:06:04;;;;;;;20.17;18.97;;;;;;;;;;5036901;28;20975;-83
2022/07/27 05:08:32;;;;;;;19.33;18.07;;;;;;;;;;5037279;28;20429;-82
2022/07/27 05:10:59;;;;;;;20.23;18.67;;;;;;;;;;5036658;28;20411;-83
2022/07/27 05:13:26;;;;;;;19.17;18.07;;;;;;;;;;5036926;28;20444;-82
2022/07/27 05:15:54;;;;;;;19.67;18.47;;;;;;;;;;5036563;28;20425;-82
2022/07/27 05:18:21;;;;;;;19.80;18.50;;;;;;;;;;5036638;28;20410;-82
2022/07/27 05:20:48;;;;;;;18.93;17.93;;;;;;;;;;5036993;28;20420;-82
2022/07/27 05:23:17;;;;;;;19.77;18.73;;;;;;;;;;5036477;28;20431;-82
2022/07/27 05:25:44;;;;;;;20.33;19.10;;;;;;;;;;5036378;28;20450;-82
2022/07/27 05:28:12;;;;;;;21.30;19.77;;;;;;;;;;5036306;28;20761;-82
2022/07/27 05:30:40;;;;;;;20.97;19.80;;;;;;;;;;5036636;28;20422;-82
2022/07/27 05:33:07;;;;;;;20.90;19.23;;;;;;;;;;5036630;28;20418;-82
2022/07/27 05:35:34;;;;;;;19.80;18.67;;;;;;;;;;5036504;28;20444;-82
2022/07/27 05:38:02;;;;;;;20.80;19.40;;;;;;;;;;5036454;28;20415;-82
2022/07/27 05:40:30;;;;;;;20.43;19.20;;;;;;;;;;5035883;28;20405;-81
2022/07/27 05:42:58;;;;;;;20.83;19.73;;;;;;;;;;5036001;28;20471;-81
2022/07/27 05:45:26;;;;;;;19.77;18.50;;;;;;;;;;5036211;28;20442;-81
2022/07/27 05:47:54;;;;;;;19.83;18.63;;;;;;;;;;5035807;28;20493;-82
2022/07/27 05:50:21;;;;;;;21.07;19.50;;;;;;;;;;5036077;28;20415;-82
2022/07/27 05:52:49;;;;;;;20.60;19.30;;;;;;;;;;5036049;28;20441;-84
2022/07/27 05:55:16;;;;;;;19.80;18.80;;;;;;;;;;5036022;28;20500;-82
2022/07/27 05:57:45;;;;;;;20.57;19.23;;;;;;;;;;5035630;28;20417;-82
2022/07/27 06:00:13;;;;;;;20.90;19.40;;;;;;;;;;5035620;28;20420;-80
2022/07/27 06:02:41;;;;;;;20.40;19.30;;;;;;;;;;5035354;28;20423;-81
2022/07/27 06:05:08;;;;;;;20.10;18.80;;;;;;;;;;5035337;28;20430;-82
2022/07/27 06:10:21;;;;;;;21.30;20.10;;;;;;;;;;5035464;28;20399;-82
2022/07/27 06:12:50;;;;;;;20.60;19.30;;;;;;;;;;5035201;28;20939;-82
2022/07/27 06:15:18;;;;;;;21.20;19.70;;;;;;;;;;5035710;28;20415;-82
2022/07/27 06:17:48;;;;;;;20.10;18.90;;;;;;;;;;5035539;28;20441;-81
2022/07/27 06:20:15;;;;;;;21.00;19.17;;;;;;;;;;5035440;28;20429;-82
2022/07/27 06:22:46;;;;;;;20.50;19.30;;;;;;;;;;5035341;28;20419;-83
2022/07/27 06:25:14;;;;;;;20.73;19.53;;;;;;;;;;5035154;28;20427;-81
2022/07/27 06:27:41;;;;;;;21.07;19.77;;;;;;;;;;5033916;28;20547;-82
2022/07/27 06:30:11;;;;;;;20.87;19.67;;;;;;;;;;5035428;28;20446;-82
2022/07/27 06:32:38;;;;;;;21.80;20.23;;;;;;;;;;5035280;28;20467;-82
2022/07/27 06:35:07;;;;;;;20.10;18.90;;;;;;;;;;5035416;28;20499;-84
2022/07/27 06:37:34;;;;;;;20.00;18.60;;;;;;;;;;5035739;28;20864;-83
2022/07/27 06:40:02;;;;;;;19.50;18.30;;;;;;;;;;5034825;28;20424;-82
2022/07/27 06:42:29;;;;;;;20.00;18.50;;;;;;;;;;5034671;28;20452;-82
2022/07/27 06:44:57;;;;;;;19.70;18.23;;;;;;;;;;5034735;28;20881;-81
2022/07/27 06:47:25;;;;;;;20.57;18.90;;;;;;;;;;5034689;28;20480;-82
2022/07/27 06:49:53;;;;;;;19.67;18.37;;;;;;;;;;5035141;28;20425;-82
2022/07/27 06:52:20;;;;;;;20.70;18.87;;;;;;;;;;5034791;28;20413;-85
2022/07/27 06:54:48;;;;;;;21.37;19.60;;;;;;;;;;5035385;28;20457;-85
2022/07/27 06:57:15;;;;;;;19.83;18.73;;;;;;;;;;5035659;28;20483;-85
2022/07/27 06:59:42;;;;;;;20.10;18.90;;;;;;;;;;5035462;28;20437;-85
2022/07/27 07:02:10;;;;;;;20.93;19.47;;;;;;;;;;5035368;28;20438;-85
2022/07/27 07:04:39;;;;;;;19.83;18.63;;;;;;;;;;5035537;28;20501;-86
2022/07/27 07:07:07;;;;;;;20.53;19.23;;;;;;;;;;5035638;28;20464;-85
2022/07/27 07:09:34;;;;;;;20.60;18.97;;;;;;;;;;5035144;28;20446;-85
2022/07/27 07:12:02;;;;;;;20.60;19.30;;;;;;;;;;5035066;28;20440;-84
2022/07/27 07:14:29;;;;;;;20.50;19.20;;;;;;;;;;5035190;28;20468;-85
2022/07/27 07:16:57;;;;;;;21.60;20.20;;;;;;;;;;5034036;28;20441;-85
2022/07/27 07:19:24;;;;;;;20.30;19.20;;;;;;;;;;5035135;28;20448;-83
2022/07/27 07:21:53;;;;;;;20.57;19.20;;;;;;;;;;5035224;28;20446;-88
2022/07/27 07:24:20;;;;;;;20.87;19.60;;;;;;;;;;5035243;28;20444;-85
2022/07/27 07:26:47;;;;;;;20.60;19.40;;;;;;;;;;5034770;28;20487;-86
2022/07/27 07:29:15;;;;;;;21.70;20.30;;;;;;;;;;5035067;28;20411;-86
2022/07/27 07:31:42;;;;;;;20.80;19.50;;;;;;;;;;5034800;28;20416;-86
2022/07/27 07:34:10;;;;;;;21.10;19.70;;;;;;;;;;5034605;28;20449;-86
2022/07/27 07:36:37;;;;;;;21.60;20.27;;;;;;;;;;5035035;28;20454;-86
2022/07/27 07:39:06;;;;;;;22.70;21.03;;;;;;;;;;5034759;28;20466;-86
2022/07/27 07:41:35;;;;;;;21.83;20.53;;;;;;;;;;5034466;28;20448;-84
2022/07/27 07:44:02;;;;;;;22.17;20.50;;;;;;;;;;5034924;28;20472;-86
2022/07/27 07:46:30;;;;;;;21.50;20.20;;;;;;;;;;5033476;28;20424;-86
2022/07/27 07:48:58;;;;;;;21.57;20.33;;;;;;;;;;5032525;28;20427;-77
2022/07/27 07:51:25;;;;;;;22.60;20.80;;;;;;;;;;5033602;28;20437;-77
2022/07/27 07:53:52;;;;;;;22.10;20.57;;;;;;;;;;5033131;28;20416;-77
2022/07/27 07:56:21;;;;;;;22.60;20.90;;;;;;;;;;5033059;28;20416;-76
2022/07/27 07:58:48;;;;;;;22.50;21.20;;;;;;;;;;5033200;28;20441;-76
2022/07/27 08:01:16;;;;;;;22.90;21.40;;;;;;;;;;5033060;28;20468;-76
2022/07/27 08:03:43;;;;;;;22.10;20.70;;;;;;;;;;5033053;28;20927;-76
2022/07/27 08:06:11;;;;;;;21.83;20.43;;;;;;;;;;5033037;28;20891;-76
2022/07/27 08:08:39;;;;;;;22.60;20.73;;;;;;;;;;5032930;28;20462;-77
2022/07/27 08:11:06;;;;;;;22.20;20.77;;;;;;;;;;5032977;28;20423;-76
2022/07/27 08:13:35;;;;;;;20.97;19.67;;;;;;;;;;5033188;28;20511;-76
2022/07/27 08:16:02;;;;;;;21.90;20.27;;;;;;;;;;5033100;28;20446;-76
2022/07/27 08:18:30;;;;;;;22.70;21.23;;;;;;;;;;5032851;28;20438;-76
2022/07/27 08:20:57;;;;;;;22.10;20.60;;;;;;;;;;5033118;28;20792;-75
2022/07/27 08:23:25;;;;;;;21.90;20.60;;;;;;;;;;5033359;28;20436;-76
2022/07/27 08:25:53;;;;;;;21.47;20.27;;;;;;;;;;5032407;28;20805;-76
2022/07/27 08:28:20;;;;;;;21.13;19.90;;;;;;;;;;5032668;28;20554;-76
2022/07/27 08:30:49;;;;;;;21.07;19.63;;;;;;;;;;5032663;28;20442;-76
2022/07/27 08:33:17;;;;;;;21.13;19.80;;;;;;;;;;5032886;28;20454;-77
2022/07/27 08:35:45;;;;;;;20.70;19.43;;;;;;;;;;5032665;28;20965;-76
2022/07/27 08:38:12;;;;;;;22.87;20.93;;;;;;;;;;5032936;28;20527;-77
2022/07/27 08:40:41;;;;;;;21.70;20.40;;;;;;;;;;5032521;28;20979;-76
2022/07/27 08:43:09;;;;;;;21.90;20.47;;;;;;;;;;5032574;28;20437;-76
2022/07/27 08:45:37;;;;;;;22.50;21.10;;;;;;;;;;5032839;28;20419;-76
2022/07/27 08:48:06;;;;;;;23.30;21.60;;;;;;;;;;5032670;28;20489;-77
2022/07/27 08:50:34;;;;;;;22.60;21.10;;;;;;;;;;5032433;28;20449;-77
2022/07/27 08:53:03;;;;;;;21.67;20.27;;;;;;;;;;5032688;28;20443;-76
2022/07/27 08:55:31;;;;;;;22.30;21.00;;;;;;;;;;5032607;28;20412;-76
2022/07/27 08:57:58;;;;;;;21.03;19.83;;;;;;;;;;5032519;28;20500;-76
2022/07/27 09:00:26;;;;;;;21.73;20.20;;;;;;;;;;5032672;28;20408;-76
2022/07/27 09:02:53;;;;;;;21.33;20.03;;;;;;;;;;5032632;28;20486;-77
2022/07/27 09:05:22;;;;;;;21.30;19.93;;;;;;;;;;5032720;28;20441;-77
2022/07/27 09:07:49;;;;;;;21.43;20.23;;;;;;;;;;5032346;28;20823;-76
2022/07/27 09:10:30;;;;;;;22.37;20.87;;;;;;;;;;5032302;28;20834;-75
2022/07/27 09:12:58;;;;;;;23.03;21.30;;;;;;;;;;5032596;28;20863;-77
2022/07/27 09:15:25;;;;;;;21.30;20.10;;;;;;;;;;5032532;28;20777;-75
2022/07/27 09:17:53;;;;;;;21.57;20.10;;;;;;;;;;5032533;28;20443;-75
2022/07/27 09:20:21;;;;;;;21.10;19.90;;;;;;;;;;5028979;28;20478;-75
2022/07/27 09:22:51;;;;;;;23.23;21.63;;;;;;;;;;5032028;28;20417;-74
2022/07/27 09:25:19;;;;;;;21.70;20.30;;;;;;;;;;5031726;28;20804;-75
2022/07/27 09:27:48;;;;;;;22.50;20.77;;;;;;;;;;5029660;28;20953;-75
2022/07/27 09:30:17;;;;;;;20.67;19.33;;;;;;;;;;5029946;28;20450;-74
2022/07/27 09:32:56;;;;;;;21.00;19.80;;;;;;;;;;5031331;28;20437;-74
2022/07/27 09:35:26;;;;;;;21.90;20.47;;;;;;;;;;5032338;28;20446;-75
2022/07/27 09:37:54;;;;;;;21.73;20.53;;;;;;;;;;5032231;28;20449;-74
2022/07/27 09:40:22;;;;;;;25.40;24.07;;;;;;;;;;5033334;28;20420;-81
2022/07/27 09:43:07;;;;;;;23.37;21.47;;;;;;;;;;5037095;28;20439;-83
2022/07/27 09:45:35;;;;;;;22.33;20.93;;;;;;;;;;5037342;28;20450;-83
2022/07/27 09:48:11;;;;;;;22.00;20.40;;;;;;;;;;5037256;28;20967;-83
2022/07/27 09:50:41;;;;;;;21.13;19.83;;;;;;;;;;5035978;28;20777;-83
2022/07/27 09:53:16;;;;;;;21.87;20.20;;;;;;;;;;5036533;28;20445;-83
2022/07/27 09:55:44;;;;;;;22.20;20.80;;;;;;;;;;5036152;28;20976;-83
2022/07/27 09:58:11;;;;;;;22.73;21.13;;;;;;;;;;5036119;28;20444;-83
2022/07/27 10:00:38;;;;;;;21.87;20.33;;;;;;;;;;5036206;28;20420;-84
2022/07/27 10:03:06;;;;;;;21.50;20.17;;;;;;;;;;5036930;28;20913;-85
2022/07/27 10:05:34;;;;;;;22.07;20.87;;;;;;;;;;5036810;28;20856;-85
2022/07/27 10:08:03;;;;;;;21.73;20.50;;;;;;;;;;5036728;28;20836;-85
2022/07/27 10:10:31;;;;;;;21.97;20.70;;;;;;;;;;5036412;28;20966;-85
2022/07/27 10:12:58;;;;;;;21.77;20.27;;;;;;;;;;5036595;28;20461;-85
2022/07/27 10:15:26;;;;;;;21.53;20.20;;;;;;;;;;5036376;28;20810;-85
2022/07/27 10:17:57;;;;;;;22.43;21.03;;;;;;;;;;5036394;28;20449;-84
2022/07/27 10:20:25;;;;;;;22.60;21.10;;;;;;;;;;5036154;28;20405;-84
2022/07/27 10:22:53;;;;;;;24.43;22.93;;;;;;;;;;5036101;28;20412;-88
2022/07/27 10:25:22;;;;;;;22.90;21.50;;;;;;;;;;5035529;28;20887;-85
2022/07/27 10:28:07;;;;;;;21.30;20.20;;;;;;;;;;5036132;28;20471;-85
2022/07/27 10:30:36;;;;;;;23.07;21.47;;;;;;;;;;5029769;28;20488;-80
2022/07/27 10:33:13;;;;;;;21.73;20.27;;;;;;;;;;5024799;28;20904;-82
2022/07/27 10:35:40;;;;;;;21.23;20.00;;;;;;;;;;5015883;28;20494;-82
2022/07/27 10:38:09;;;;;;;21.37;19.83;;;;;;;;;;5016264;28;20436;-82
2022/07/27 10:40:38;;;;;;;21.70;20.40;;;;;;;;;;5016809;28;21010;-83
2022/07/27 10:43:11;;;;;;;22.20;20.70;;;;;;;;;;5016113;28;20409;-82
2022/07/27 10:45:44;;;;;;;24.07;21.80;;;;;;;;;;5015198;28;20440;-83
2022/07/27 10:48:34;;;;;;;21.93;20.53;;;;;;;;;;5014804;28;20493;-83
2022/07/27 10:51:02;;;;;;;21.77;20.47;;;;;;;;;;5014713;28;20838;-85
2022/07/27 10:53:34;;;;;;;22.77;21.07;;;;;;;;;;5015231;28;20928;-86
2022/07/27 10:56:03;;;;;;;22.47;20.53;;;;;;;;;;5015662;28;20442;-86
2022/07/27 10:58:52;;;;;;;22.37;20.83;;;;;;;;;;5015343;28;20443;-85
2022/07/27 11:01:20;;;;;;;23.00;21.37;;;;;;;;;;5015596;28;20411;-84
2022/07/27 11:03:51;;;;;;;22.57;21.03;;;;;;;;;;5015107;28;20440;-86
2022/07/27 11:06:28;;;;;;;23.03;21.63;;;;;;;;;;5015446;28;20478;-85
2022/07/27 11:08:56;;;;;;;22.63;21.30;;;;;;;;;;5015051;28;20802;-84
2022/07/27 11:11:25;;;;;;;22.90;21.53;;;;;;;;;;5015249;28;20814;-85
2022/07/27 11:13:54;;;;;;;21.70;20.50;;;;;;;;;;5015029;28;20446;-85
2022/07/27 11:16:21;;;;;;;22.50;20.87;;;;;;;;;;5014829;28;20947;-85
2022/07/27 11:18:56;;;;;;;23.70;22.00;;;;;;;;;;5015396;28;20451;-89
2022/07/27 11:21:24;;;;;;;21.93;20.73;;;;;;;;;;5015470;28;20422;-88
2022/07/27 11:23:52;;;;;;;22.43;20.77;;;;;;;;;;5015669;28;20409;-88
2022/07/27 11:26:20;;;;;;;22.57;20.87;;;;;;;;;;5014894;28;20492;-88
2022/07/27 11:28:49;;;;;;;22.83;21.23;;;;;;;;;;5015474;28;20507;-88
2022/07/27 11:31:16;;;;;;;22.13;20.83;;;;;;;;;;5015345;28;20447;-88
2022/07/27 11:33:50;;;;;;;22.37;21.07;;;;;;;;;;5015259;28;20493;-90
2022/07/27 11:36:18;;;;;;;22.30;21.00;;;;;;;;;;5014962;28;20428;-87
2022/07/27 11:38:46;;;;;;;22.83;21.53;;;;;;;;;;5015342;28;20418;-87
2022/07/27 11:41:22;;;;;;;22.83;21.53;;;;;;;;;;5014061;28;20482;-87
2022/07/27 11:43:50;;;;;;;22.53;20.97;;;;;;;;;;5014969;28;20889;-86
2022/07/27 11:46:21;;;;;;;22.80;21.20;;;;;;;;;;5014852;28;20436;-86
2022/07/27 11:48:49;;;;;;;22.10;20.40;;;;;;;;;;5015050;28;20492;-87
2022/07/27 11:51:17;;;;;;;23.83;22.20;;;;;;;;;;5014523;28;20903;-86
2022/07/27 11:53:44;;;;;;;22.37;20.67;;;;;;;;;;5014971;28;20430;-86
2022/07/27 11:56:12;;;;;;;22.27;20.77;;;;;;;;;;5014951;28;20504;-87
2022/07/27 11:59:00;;;;;;;22.53;21.13;;;;;;;;;;5014699;28;20414;-87
2022/07/27 12:01:29;;;;;;;22.00;20.40;;;;;;;;;;5014557;28;20442;-86
2022/07/27 12:04:03;;;;;;;22.60;21.20;;;;;;;;;;5013968;28;20445;-84
2022/07/27 12:06:32;;;;;;;21.77;20.37;;;;;;;;;;5014529;28;20442;-85
2022/07/27 12:09:00;;;;;;;23.80;22.30;;;;;;;;;;5014044;28;20569;-86
2022/07/27 12:11:30;;;;;;;23.50;21.80;;;;;;;;;;5014547;28;20739;-86
2022/07/27 12:14:11;;;;;;;24.50;22.90;;;;;;;;;;5014851;28;20433;-83
2022/07/27 12:16:39;;;;;;;23.40;21.90;;;;;;;;;;5013243;28;20467;-86
2022/07/27 12:19:06;;;;;;;23.97;22.53;;;;;;;;;;5013562;28;20808;-83
2022/07/27 12:21:34;;;;;;;23.30;21.90;;;;;;;;;;5013509;28;20786;-79
2022/07/27 12:24:01;;;;;;;22.83;21.50;;;;;;;;;;5013164;28;20427;-80
2022/07/27 12:26:29;;;;;;;23.17;21.73;;;;;;;;;;5012600;28;20506;-80
2022/07/27 12:29:08;;;;;;;23.50;22.00;;;;;;;;;;5012884;28;20520;-80
2022/07/27 12:31:36;;;;;;;23.90;22.23;;;;;;;;;;5013455;28;20421;-80
2022/07/27 12:34:05;;;;;;;22.37;21.00;;;;;;;;;;5023775;28;20440;-85
2022/07/27 12:36:33;;;;;;;23.30;21.90;;;;;;;;;;5033340;28;20790;-87
2022/07/27 12:39:00;;;;;;;23.60;22.17;;;;;;;;;;5034079;28;20428;-87
2022/07/27 12:41:28;;;;;;;22.87;21.40;;;;;;;;;;5033949;28;20479;-87
2022/07/27 12:44:05;;;;;;;22.90;21.50;;;;;;;;;;5033898;28;20417;-88
2022/07/27 12:46:34;;;;;;;22.20;20.70;;;;;;;;;;5033738;28;20442;-87
2022/07/27 12:49:02;;;;;;;23.70;22.10;;;;;;;;;;5034141;28;20855;-86
2022/07/27 12:51:29;;;;;;;23.20;21.90;;;;;;;;;;5033841;28;20421;-87
2022/07/27 12:53:56;;;;;;;23.80;22.10;;;;;;;;;;5033702;28;20422;-88
2022/07/27 12:56:24;;;;;;;22.70;21.30;;;;;;;;;;5034067;28;20421;-87
2022/07/27 12:59:00;;;;;;;23.00;21.60;;;;;;;;;;5033142;28;20426;-87
2022/07/27 13:01:27;;;;;;;23.40;21.87;;;;;;;;;;5033309;28;20429;-88
2022/07/27 13:03:56;;;;;;;22.97;21.33;;;;;;;;;;5033863;28;20447;-87
2022/07/27 13:06:23;;;;;;;22.90;21.30;;;;;;;;;;5033989;28;20438;-87
2022/07/27 13:08:51;;;;;;;23.57;22.00;;;;;;;;;;5033545;28;20454;-87
2022/07/27 13:11:18;;;;;;;23.50;22.00;;;;;;;;;;5033427;28;20454;-87
2022/07/27 13:13:45;;;;;;;22.33;20.93;;;;;;;;;;5033654;28;20600;-87
2022/07/27 13:16:13;;;;;;;23.17;21.77;;;;;;;;;;5035806;28;20451;-87
2022/07/27 13:18:40;;;;;;;24.57;23.07;;;;;;;;;;5037298;28;20439;-87
2022/07/27 13:21:09;;;;;;;24.07;22.67;;;;;;;;;;5037402;28;20445;-87
2022/07/27 13:23:36;;;;;;;23.87;22.47;;;;;;;;;;5037646;28;20802;-88
2022/07/27 13:26:04;;;;;;;23.77;22.27;;;;;;;;;;5036756;28;20442;-87
2022/07/27 13:28:31;;;;;;;24.17;22.57;;;;;;;;;;5037652;28;20467;-86
2022/07/27 13:30:58;;;;;;;23.90;22.50;;;;;;;;;;5037141;28;20421;-87
2022/07/27 13:33:26;;;;;;;23.73;22.23;;;;;;;;;;5036353;28;20425;-86
2022/07/27 13:35:53;;;;;;;23.47;22.13;;;;;;;;;;5036937;28;20398;-87
2022/07/27 13:38:22;;;;;;;23.93;22.53;;;;;;;;;;5036921;28;20892;-87
2022/07/27 13:40:49;;;;;;;23.33;21.80;;;;;;;;;;5037183;28;20475;-87
2022/07/27 13:43:18;;;;;;;23.90;22.50;;;;;;;;;;5037295;28;20420;-87
2022/07/27 13:45:45;;;;;;;24.37;22.77;;;;;;;;;;5037023;28;20431;-87
2022/07/27 13:48:13;;;;;;;23.73;22.00;;;;;;;;;;5037007;28;20420;-87
2022/07/27 13:50:41;;;;;;;24.03;22.53;;;;;;;;;;5037100;28;20427;-87
2022/07/27 13:53:08;;;;;;;22.90;21.70;;;;;;;;;;5037309;28;20875;-87
2022/07/27 13:55:37;;;;;;;24.50;23.07;;;;;;;;;;5037059;28;20859;-86
2022/07/27 13:58:04;;;;;;;23.10;21.67;;;;;;;;;;5037065;28;20454;-86
2022/07/27 14:00:31;;;;;;;23.50;22.10;;;;;;;;;;5036973;28;20448;-87
2022/07/27 14:02:59;;;;;;;23.80;22.10;;;;;;;;;;5036810;28;20457;-87
2022/07/27 14:05:26;;;;;;;24.60;23.10;;;;;;;;;;5036626;28;20405;-88
2022/07/27 14:07:53;;;;;;;24.30;22.83;;;;;;;;;;5036870;28;20434;-87
2022/07/27 14:10:38;;;;;;;24.17;22.77;;;;;;;;;;5036064;28;20449;-87
2022/07/27 14:13:08;;;;;;;23.37;21.97;;;;;;;;;;5035330;28;20437;-88
2022/07/27 14:15:35;;;;;;;23.73;22.23;;;;;;;;;;5036562;28;20451;-87
2022/07/27 14:18:03;;;;;;;24.87;23.33;;;;;;;;;;5036321;28;20454;-87
2022/07/27 14:20:31;;;;;;;24.77;23.37;;;;;;;;;;5036115;28;20412;-86
2022/07/27 14:22:59;;;;;;;23.13;21.80;;;;;;;;;;5036325;28;20454;-87
2022/07/27 14:25:26;;;;;;;24.37;22.33;;;;;;;;;;5035659;28;20456;-87
2022/07/27 14:27:54;;;;;;;23.07;21.73;;;;;;;;;;5036248;28;20434;-87
2022/07/27 14:30:23;;;;;;;22.67;21.37;;;;;;;;;;5036122;28;20494;-87